createdAt,value
2023-01-18T00:00:29.870Z,955.01
2023-01-18T00:01:29.824Z,954.98
2023-01-18T00:02:29.815Z,955.04
2023-01-18T00:03:29.837Z,955.08
2023-01-18T00:04:29.805Z,955.08
2023-01-18T00:05:29.788Z,955.10
2023-01-18T00:06:29.793Z,955.05
2023-01-18T00:07:29.778Z,955.07
2023-01-18T00:08:29.754Z,955.07
2023-01-18T00:09:29.763Z,955.06
2023-01-18T00:10:29.756Z,955.06
2023-01-18T00:11:29.754Z,955.09
2023-01-18T00:12:29.725Z,955.12
2023-01-18T00:13:29.712Z,955.12
2023-01-18T00:14:29.709Z,955.11
2023-01-18T00:15:29.695Z,955.12
2023-01-18T00:16:29.705Z,955.13
2023-01-18T00:17:29.654Z,955.12
2023-01-18T00:18:29.666Z,955.14
2023-01-18T00:19:29.635Z,955.09
2023-01-18T00:20:29.667Z,955.05
2023-01-18T00:21:29.644Z,955.04
2023-01-18T00:22:29.605Z,955.01
2023-01-18T00:23:29.605Z,955.05
2023-01-18T00:24:29.585Z,955.08
2023-01-18T00:25:29.597Z,955.10
2023-01-18T00:26:29.566Z,955.14
2023-01-18T00:27:29.582Z,955.10
2023-01-18T00:28:29.569Z,955.11
2023-01-18T00:29:29.545Z,955.14
2023-01-18T00:30:29.539Z,955.10
2023-01-18T00:31:29.546Z,955.09
2023-01-18T00:32:29.501Z,955.14
2023-01-18T00:33:29.514Z,955.14
2023-01-18T00:34:29.476Z,955.11
2023-01-18T00:35:29.471Z,955.11
2023-01-18T00:36:29.463Z,955.14
2023-01-18T00:37:29.445Z,955.19
2023-01-18T00:38:29.454Z,955.13
2023-01-18T00:39:29.447Z,955.16
2023-01-18T00:40:29.418Z,955.16
2023-01-18T00:41:29.418Z,955.18
2023-01-18T00:42:29.396Z,955.17
2023-01-18T00:43:29.387Z,955.18
2023-01-18T00:44:29.415Z,955.11
2023-01-18T00:45:29.420Z,955.19
2023-01-18T00:46:29.347Z,955.14
2023-01-18T00:47:29.354Z,955.18
2023-01-18T00:48:29.338Z,955.17
2023-01-18T00:49:29.339Z,955.19
2023-01-18T00:50:29.335Z,955.23
2023-01-18T00:51:29.321Z,955.18
2023-01-18T00:52:29.279Z,955.25
2023-01-18T00:53:29.278Z,955.19
2023-01-18T00:54:29.275Z,955.22
2023-01-18T00:55:29.265Z,955.19
2023-01-18T00:56:29.248Z,955.23
2023-01-18T00:57:29.230Z,955.26
2023-01-18T00:58:29.261Z,955.25
2023-01-18T00:59:29.226Z,955.24
2023-01-18T01:00:29.197Z,955.27
2023-01-18T01:01:29.434Z,955.23
2023-01-18T01:02:29.242Z,955.25
2023-01-18T01:03:29.168Z,955.22
2023-01-18T01:04:29.187Z,955.27
2023-01-18T01:05:29.163Z,955.26
2023-01-18T01:06:29.149Z,955.25
2023-01-18T01:07:29.128Z,955.24
2023-01-18T01:08:29.145Z,955.31
2023-01-18T01:09:29.141Z,955.28
2023-01-18T01:10:29.088Z,955.29
2023-01-18T01:11:29.116Z,955.25
2023-01-18T01:12:29.073Z,955.24
2023-01-18T01:13:29.071Z,955.23
2023-01-18T01:14:29.058Z,955.21
2023-01-18T01:15:29.036Z,955.24
2023-01-18T01:16:29.083Z,955.17
2023-01-18T01:17:29.028Z,955.28
2023-01-18T01:18:29.023Z,955.25
2023-01-18T01:19:29.020Z,955.28
2023-01-18T01:20:29.021Z,955.32
2023-01-18T01:21:28.988Z,955.31
2023-01-18T01:22:28.980Z,955.27
2023-01-18T01:23:28.979Z,955.32
2023-01-18T01:24:28.951Z,955.25
2023-01-18T01:25:28.979Z,955.35
2023-01-18T01:26:28.940Z,955.34
2023-01-18T01:27:28.960Z,955.35
2023-01-18T01:28:28.927Z,955.39
2023-01-18T01:29:28.912Z,955.45
2023-01-18T01:30:28.920Z,955.39
2023-01-18T01:31:28.880Z,955.41
2023-01-18T01:32:28.879Z,955.44
2023-01-18T01:33:28.883Z,955.49
2023-01-18T01:34:28.859Z,955.55
2023-01-18T01:35:28.839Z,955.51
2023-01-18T01:36:28.840Z,955.52
2023-01-18T01:37:28.819Z,955.46
2023-01-18T01:38:28.811Z,955.54
2023-01-18T01:39:29.743Z,955.60
2023-01-18T01:40:28.779Z,955.54
2023-01-18T01:41:28.803Z,955.60
2023-01-18T01:42:28.764Z,955.68
2023-01-18T01:43:28.760Z,955.59
2023-01-18T01:44:28.740Z,955.61
2023-01-18T01:45:28.750Z,955.65
2023-01-18T01:46:28.746Z,955.66
2023-01-18T01:47:28.740Z,955.59
2023-01-18T01:48:28.731Z,955.65
2023-01-18T01:49:28.691Z,955.54
2023-01-18T01:50:28.691Z,955.58
2023-01-18T01:51:28.693Z,955.64
2023-01-18T01:52:28.681Z,955.65
2023-01-18T01:53:28.669Z,955.62
2023-01-18T01:54:28.637Z,955.57
2023-01-18T01:55:28.630Z,955.59
2023-01-18T01:56:28.630Z,955.62
2023-01-18T01:57:28.627Z,955.67
2023-01-18T01:58:28.595Z,955.67
2023-01-18T01:59:28.601Z,955.69
2023-01-18T02:00:28.601Z,955.63
2023-01-18T02:01:28.693Z,955.73
2023-01-18T02:02:28.574Z,955.71
2023-01-18T02:03:28.552Z,955.81
2023-01-18T02:04:28.569Z,955.74
2023-01-18T02:05:28.530Z,955.77
2023-01-18T02:06:28.531Z,955.79
2023-01-18T02:07:28.523Z,955.78
2023-01-18T02:08:28.496Z,955.77
2023-01-18T02:09:28.504Z,955.84
2023-01-18T02:10:28.515Z,955.80
2023-01-18T02:11:28.482Z,955.82
2023-01-18T02:12:28.447Z,955.76
2023-01-18T02:13:28.463Z,955.80
2023-01-18T02:14:28.453Z,955.82
2023-01-18T02:15:28.422Z,955.77
2023-01-18T02:16:28.462Z,955.85
2023-01-18T02:17:28.405Z,955.90
2023-01-18T02:18:28.403Z,955.79
2023-01-18T02:19:28.408Z,955.85
2023-01-18T02:20:28.365Z,955.82
2023-01-18T02:21:28.354Z,955.89
2023-01-18T02:22:29.292Z,955.83
2023-01-18T02:23:28.365Z,955.81
2023-01-18T02:24:28.346Z,955.89
2023-01-18T02:25:28.344Z,955.86
2023-01-18T02:26:28.314Z,955.92
2023-01-18T02:27:28.302Z,955.88
2023-01-18T02:28:28.298Z,955.84
2023-01-18T02:29:28.292Z,955.88
2023-01-18T02:30:28.293Z,955.93
2023-01-18T02:31:28.267Z,955.95
2023-01-18T02:32:28.253Z,955.97
2023-01-18T02:33:28.242Z,955.90
2023-01-18T02:34:28.255Z,955.96
2023-01-18T02:35:28.254Z,955.96
2023-01-18T02:36:28.200Z,955.96
2023-01-18T02:37:28.202Z,956.02
2023-01-18T02:38:28.199Z,955.94
2023-01-18T02:39:28.168Z,955.99
2023-01-18T02:40:28.183Z,956.01
2023-01-18T02:41:28.193Z,956.00
2023-01-18T02:42:28.146Z,956.03
2023-01-18T02:43:28.123Z,955.99
2023-01-18T02:44:28.141Z,956.00
2023-01-18T02:45:28.113Z,956.03
2023-01-18T02:46:28.155Z,955.98
2023-01-18T02:47:28.198Z,956.02
2023-01-18T02:48:28.083Z,956.03
2023-01-18T02:49:28.083Z,956.04
2023-01-18T02:50:28.058Z,956.09
2023-01-18T02:51:28.069Z,956.06
2023-01-18T02:52:28.040Z,956.07
2023-01-18T02:53:28.012Z,956.08
2023-01-18T02:54:28.024Z,956.12
2023-01-18T02:55:27.992Z,956.12
2023-01-18T02:56:28.001Z,956.12
2023-01-18T02:57:28.044Z,956.07
2023-01-18T02:58:27.953Z,956.11
2023-01-18T02:59:27.961Z,956.07
2023-01-18T03:00:27.946Z,956.12
2023-01-18T03:01:27.994Z,956.09
2023-01-18T03:02:27.943Z,956.06
2023-01-18T03:03:27.915Z,956.05
2023-01-18T03:04:27.919Z,956.09
2023-01-18T03:05:27.895Z,956.16
2023-01-18T03:06:27.886Z,956.12
2023-01-18T03:07:27.871Z,956.13
2023-01-18T03:08:27.873Z,956.08
2023-01-18T03:09:27.875Z,956.09
2023-01-18T03:10:27.831Z,956.09
2023-01-18T03:11:27.831Z,956.09
2023-01-18T03:12:27.823Z,956.16
2023-01-18T03:13:27.812Z,956.17
2023-01-18T03:14:27.812Z,956.16
2023-01-18T03:15:27.828Z,956.18
2023-01-18T03:16:27.779Z,956.21
2023-01-18T03:17:27.772Z,956.25
2023-01-18T03:18:27.760Z,956.22
2023-01-18T03:19:27.743Z,956.28
2023-01-18T03:20:27.743Z,956.26
2023-01-18T03:21:27.732Z,956.23
2023-01-18T03:22:27.715Z,956.30
2023-01-18T03:23:27.703Z,956.24
2023-01-18T03:24:27.712Z,956.33
2023-01-18T03:25:27.707Z,956.23
2023-01-18T03:26:27.694Z,956.31
2023-01-18T03:27:27.673Z,956.25
2023-01-18T03:28:27.652Z,956.25
2023-01-18T03:29:27.653Z,956.22
2023-01-18T03:30:27.633Z,956.26
2023-01-18T03:31:27.633Z,956.24
2023-01-18T03:32:27.608Z,956.24
2023-01-18T03:33:27.616Z,956.28
2023-01-18T03:34:27.581Z,956.30
2023-01-18T03:35:27.587Z,956.28
2023-01-18T03:36:27.594Z,956.28
2023-01-18T03:37:27.573Z,956.33
2023-01-18T03:38:27.543Z,956.26
2023-01-18T03:39:27.541Z,956.32
2023-01-18T03:40:27.530Z,956.29
2023-01-18T03:41:27.569Z,956.30
2023-01-18T03:42:27.503Z,956.24
2023-01-18T03:43:27.494Z,956.29
2023-01-18T03:44:27.492Z,956.30
2023-01-18T03:45:27.493Z,956.29
2023-01-18T03:46:27.514Z,956.29
2023-01-18T03:47:27.482Z,956.38
2023-01-18T03:48:28.395Z,956.40
2023-01-18T03:49:27.444Z,956.44
2023-01-18T03:50:27.432Z,956.45
2023-01-18T03:51:27.416Z,956.44
2023-01-18T03:52:27.403Z,956.47
2023-01-18T03:53:27.405Z,956.48
2023-01-18T03:54:27.404Z,956.52
2023-01-18T03:55:27.374Z,956.55
2023-01-18T03:56:27.371Z,956.50
2023-01-18T03:57:27.383Z,956.57
2023-01-18T03:58:27.343Z,956.53
2023-01-18T03:59:27.339Z,956.56
2023-01-18T04:00:27.330Z,956.54
2023-01-18T04:01:27.468Z,956.55
2023-01-18T04:02:27.351Z,956.52
2023-01-18T04:03:27.288Z,956.54
2023-01-18T04:04:27.284Z,956.59
2023-01-18T04:05:27.269Z,956.56
2023-01-18T04:06:27.277Z,956.60
2023-01-18T04:07:27.259Z,956.64
2023-01-18T04:08:27.234Z,956.57
2023-01-18T04:09:27.237Z,956.52
2023-01-18T04:10:27.217Z,956.55
2023-01-18T04:11:27.219Z,956.56
2023-01-18T04:12:27.196Z,956.58
2023-01-18T04:13:27.194Z,956.60
2023-01-18T04:14:27.199Z,956.56
2023-01-18T04:15:27.169Z,956.57
2023-01-18T04:16:27.156Z,956.58
2023-01-18T04:17:27.145Z,956.58
2023-01-18T04:18:27.156Z,956.64
2023-01-18T04:19:27.147Z,956.60
2023-01-18T04:20:27.116Z,956.68
2023-01-18T04:21:27.120Z,956.65
2023-01-18T04:22:27.100Z,956.70
2023-01-18T04:23:27.085Z,956.63
2023-01-18T04:24:27.106Z,956.67
2023-01-18T04:25:27.083Z,956.75
2023-01-18T04:26:27.061Z,956.72
2023-01-18T04:27:27.059Z,956.68
2023-01-18T04:28:27.039Z,956.75
2023-01-18T04:29:27.016Z,956.78
2023-01-18T04:30:27.013Z,956.76
2023-01-18T04:31:27.093Z,956.75
2023-01-18T04:32:27.039Z,956.76
2023-01-18T04:33:27.041Z,956.71
2023-01-18T04:34:26.967Z,956.76
2023-01-18T04:35:26.968Z,956.81
2023-01-18T04:36:26.967Z,956.82
2023-01-18T04:37:26.954Z,956.84
2023-01-18T04:38:26.926Z,956.76
2023-01-18T04:39:26.925Z,956.84
2023-01-18T04:40:26.911Z,956.86
2023-01-18T04:41:26.910Z,956.89
2023-01-18T04:42:26.891Z,956.96
2023-01-18T04:43:26.887Z,956.95
2023-01-18T04:44:26.876Z,956.98
2023-01-18T04:45:26.869Z,957.02
2023-01-18T04:46:26.895Z,956.99
2023-01-18T04:47:26.847Z,957.01
2023-01-18T04:48:26.826Z,957.00
2023-01-18T04:49:26.835Z,956.99
2023-01-18T04:50:26.819Z,957.01
2023-01-18T04:51:26.808Z,957.04
2023-01-18T04:52:26.918Z,957.01
2023-01-18T04:53:26.820Z,957.06
2023-01-18T04:54:26.764Z,957.11
2023-01-18T04:55:26.772Z,957.12
2023-01-18T04:56:26.739Z,957.13
2023-01-18T04:57:26.727Z,957.16
2023-01-18T04:58:26.730Z,957.10
2023-01-18T04:59:26.729Z,957.11
2023-01-18T05:00:26.708Z,957.17
2023-01-18T05:01:26.822Z,957.17
2023-01-18T05:02:26.705Z,957.20
2023-01-18T05:03:26.687Z,957.23
2023-01-18T05:04:26.660Z,957.27
2023-01-18T05:05:26.656Z,957.31
2023-01-18T05:06:26.637Z,957.32
2023-01-18T05:07:26.628Z,957.33
2023-01-18T05:08:26.643Z,957.33
2023-01-18T05:09:26.609Z,957.34
2023-01-18T05:10:26.600Z,957.41
2023-01-18T05:11:26.595Z,957.39
2023-01-18T05:12:26.799Z,957.40
2023-01-18T05:13:26.572Z,957.43
2023-01-18T05:14:26.549Z,957.43
2023-01-18T05:15:26.549Z,957.49
2023-01-18T05:16:26.575Z,957.54
2023-01-18T05:17:26.540Z,957.54
2023-01-18T05:18:26.541Z,957.59
2023-01-18T05:19:26.508Z,957.66
2023-01-18T05:20:26.514Z,957.65
2023-01-18T05:21:26.484Z,957.68
2023-01-18T05:22:26.486Z,957.67
2023-01-18T05:23:26.462Z,957.68
2023-01-18T05:24:28.864Z,957.76
2023-01-18T05:25:26.449Z,957.75
2023-01-18T05:26:26.461Z,957.80
2023-01-18T05:27:26.428Z,957.82
2023-01-18T05:28:26.417Z,957.87
2023-01-18T05:29:26.409Z,957.94
2023-01-18T05:30:26.389Z,957.99
2023-01-18T05:31:26.469Z,957.95
2023-01-18T05:32:26.378Z,957.97
2023-01-18T05:33:26.360Z,957.98
2023-01-18T05:34:26.350Z,958.02
2023-01-18T05:35:26.359Z,958.06
2023-01-18T05:36:26.435Z,958.04
2023-01-18T05:37:26.334Z,958.07
2023-01-18T05:38:26.314Z,958.12
2023-01-18T05:39:26.320Z,958.11
2023-01-18T05:40:26.309Z,958.16
2023-01-18T05:41:26.287Z,958.11
2023-01-18T05:42:26.270Z,958.17
2023-01-18T05:43:26.273Z,958.19
2023-01-18T05:44:26.270Z,958.17
2023-01-18T05:45:26.306Z,958.13
2023-01-18T05:46:26.242Z,958.19
2023-01-18T05:47:26.236Z,958.23
2023-01-18T05:48:26.213Z,958.26
2023-01-18T05:49:26.212Z,958.24
2023-01-18T05:50:26.182Z,958.24
2023-01-18T05:51:26.189Z,958.31
2023-01-18T05:52:26.172Z,958.28
2023-01-18T05:53:26.159Z,958.34
2023-01-18T05:54:26.142Z,958.35
2023-01-18T05:55:26.140Z,958.30
2023-01-18T05:56:26.149Z,958.36
2023-01-18T05:57:26.118Z,958.37
2023-01-18T05:58:26.122Z,958.37
2023-01-18T05:59:26.107Z,958.38
2023-01-18T06:00:26.101Z,958.42
2023-01-18T06:01:26.099Z,958.39
2023-01-18T06:02:26.063Z,958.48
2023-01-18T06:03:26.061Z,958.52
2023-01-18T06:04:26.063Z,958.56
2023-01-18T06:05:26.048Z,958.58
2023-01-18T06:06:26.022Z,958.64
2023-01-18T06:07:26.012Z,958.64
2023-01-18T06:08:26.001Z,958.71
2023-01-18T06:09:25.987Z,958.73
2023-01-18T06:10:26.000Z,958.70
2023-01-18T06:11:25.992Z,958.76
2023-01-18T06:12:25.951Z,958.79
2023-01-18T06:13:25.953Z,958.80
2023-01-18T06:14:25.941Z,958.82
2023-01-18T06:15:25.933Z,958.87
2023-01-18T06:16:25.978Z,958.87
2023-01-18T06:17:25.939Z,958.88
2023-01-18T06:18:25.891Z,958.96
2023-01-18T06:19:25.883Z,958.89
2023-01-18T06:20:25.880Z,958.97
2023-01-18T06:21:25.863Z,959.02
2023-01-18T06:22:25.852Z,958.98
2023-01-18T06:23:25.862Z,959.05
2023-01-18T06:24:25.833Z,959.09
2023-01-18T06:25:25.823Z,959.06
2023-01-18T06:26:25.813Z,959.04
2023-01-18T06:27:25.830Z,959.07
2023-01-18T06:28:25.792Z,959.05
2023-01-18T06:29:25.782Z,959.05
2023-01-18T06:30:25.772Z,959.14
2023-01-18T06:31:25.764Z,959.08
2023-01-18T06:32:25.763Z,959.17
2023-01-18T06:33:25.745Z,959.19
2023-01-18T06:34:25.733Z,959.20
2023-01-18T06:35:25.725Z,959.24
2023-01-18T06:36:25.722Z,959.20
2023-01-18T06:37:25.705Z,959.27
2023-01-18T06:38:25.689Z,959.29
2023-01-18T06:39:25.681Z,959.28
2023-01-18T06:40:25.671Z,959.25
2023-01-18T06:41:25.670Z,959.34
2023-01-18T06:42:25.652Z,959.31
2023-01-18T06:43:25.647Z,959.28
2023-01-18T06:44:25.623Z,959.35
2023-01-18T06:45:25.637Z,959.36
2023-01-18T06:46:25.603Z,959.43
2023-01-18T06:47:25.592Z,959.43
2023-01-18T06:48:25.588Z,959.38
2023-01-18T06:49:25.601Z,959.49
2023-01-18T06:50:25.564Z,959.42
2023-01-18T06:51:25.561Z,959.45
2023-01-18T06:52:25.573Z,959.51
2023-01-18T06:53:25.534Z,959.50
2023-01-18T06:54:25.529Z,959.57
2023-01-18T06:55:25.515Z,959.57
2023-01-18T06:56:25.525Z,959.56
2023-01-18T06:57:25.493Z,959.53
2023-01-18T06:58:25.494Z,959.55
2023-01-18T06:59:25.494Z,959.58
2023-01-18T07:00:25.464Z,959.60
2023-01-18T07:01:25.587Z,959.66
2023-01-18T07:02:25.456Z,959.56
2023-01-18T07:03:25.434Z,959.68
2023-01-18T07:04:25.486Z,959.76
2023-01-18T07:05:25.405Z,959.75
2023-01-18T07:06:25.411Z,959.77
2023-01-18T07:07:25.397Z,959.74
2023-01-18T07:08:25.386Z,959.80
2023-01-18T07:09:25.376Z,959.87
2023-01-18T07:10:25.367Z,959.80
2023-01-18T07:11:25.354Z,959.77
2023-01-18T07:12:25.344Z,959.85
2023-01-18T07:13:25.333Z,959.91
2023-01-18T07:14:25.337Z,959.89
2023-01-18T07:15:25.308Z,959.94
2023-01-18T07:16:25.332Z,959.90
2023-01-18T07:17:25.292Z,960.01
2023-01-18T07:18:25.298Z,959.99
2023-01-18T07:19:25.265Z,960.03
2023-01-18T07:20:25.276Z,960.05
2023-01-18T07:21:25.249Z,960.04
2023-01-18T07:22:25.247Z,960.05
2023-01-18T07:23:25.227Z,960.12
2023-01-18T07:24:25.226Z,960.05
2023-01-18T07:25:25.206Z,960.14
2023-01-18T07:26:25.200Z,960.13
2023-01-18T07:27:25.185Z,960.17
2023-01-18T07:28:25.176Z,960.18
2023-01-18T07:29:25.185Z,960.20
2023-01-18T07:30:25.175Z,960.20
2023-01-18T07:31:25.225Z,960.27
2023-01-18T07:32:25.145Z,960.36
2023-01-18T07:33:25.123Z,960.35
2023-01-18T07:34:25.131Z,960.39
2023-01-18T07:35:25.111Z,960.38
2023-01-18T07:36:25.097Z,960.40
2023-01-18T07:37:25.136Z,960.47
2023-01-18T07:38:25.078Z,960.39
2023-01-18T07:39:25.080Z,960.51
2023-01-18T07:40:25.087Z,960.42
2023-01-18T07:41:25.040Z,960.52
2023-01-18T07:42:25.042Z,960.53
2023-01-18T07:43:25.015Z,960.62
2023-01-18T07:44:25.024Z,960.60
2023-01-18T07:45:25.010Z,960.60
2023-01-18T07:46:25.060Z,960.57
2023-01-18T07:47:24.987Z,960.72
2023-01-18T07:48:24.973Z,960.65
2023-01-18T07:49:24.957Z,960.65
2023-01-18T07:50:24.971Z,960.66
2023-01-18T07:51:24.967Z,960.68
2023-01-18T07:52:24.976Z,960.72
2023-01-18T07:53:24.915Z,960.72
2023-01-18T07:54:24.913Z,960.77
2023-01-18T07:55:24.904Z,960.81
2023-01-18T07:56:24.887Z,960.73
2023-01-18T07:57:24.867Z,960.79
2023-01-18T07:58:24.874Z,960.85
2023-01-18T07:59:24.857Z,960.78
2023-01-18T08:00:24.858Z,960.82
2023-01-18T08:01:24.978Z,960.81
2023-01-18T08:02:24.842Z,960.97
2023-01-18T08:03:24.808Z,961.11
2023-01-18T08:04:24.808Z,960.89
2023-01-18T08:05:24.793Z,960.84
2023-01-18T08:06:24.907Z,960.96
2023-01-18T08:07:24.787Z,960.95
2023-01-18T08:08:24.772Z,960.98
2023-01-18T08:09:24.761Z,960.98
2023-01-18T08:10:24.745Z,960.95
2023-01-18T08:11:24.733Z,961.05
2023-01-18T08:12:24.717Z,961.12
2023-01-18T08:13:24.709Z,961.03
2023-01-18T08:14:24.718Z,961.05
2023-01-18T08:15:24.686Z,961.06
2023-01-18T08:16:24.696Z,961.10
2023-01-18T08:17:24.668Z,961.14
2023-01-18T08:18:24.674Z,961.07
2023-01-18T08:19:24.647Z,961.16
2023-01-18T08:20:24.658Z,961.17
2023-01-18T08:21:24.635Z,961.19
2023-01-18T08:22:24.625Z,961.18
2023-01-18T08:23:24.616Z,961.20
2023-01-18T08:24:25.007Z,961.20
2023-01-18T08:25:24.598Z,961.24
2023-01-18T08:26:24.579Z,961.29
2023-01-18T08:27:27.103Z,961.29
2023-01-18T08:28:24.561Z,961.30
2023-01-18T08:29:24.547Z,961.33
2023-01-18T08:30:24.568Z,961.42
2023-01-18T08:31:24.614Z,961.36
2023-01-18T08:32:24.523Z,961.46
2023-01-18T08:33:24.508Z,961.50
2023-01-18T08:34:24.513Z,961.55
2023-01-18T08:35:24.479Z,961.57
2023-01-18T08:36:24.475Z,961.59
2023-01-18T08:37:24.458Z,961.52
2023-01-18T08:38:24.458Z,961.63
2023-01-18T08:39:24.452Z,961.64
2023-01-18T08:40:24.441Z,961.66
2023-01-18T08:41:24.421Z,961.72
2023-01-18T08:42:24.424Z,961.68
2023-01-18T08:43:24.410Z,961.66
2023-01-18T08:44:24.390Z,961.78
2023-01-18T08:45:24.380Z,961.72
2023-01-18T08:46:24.463Z,961.74
2023-01-18T08:47:24.398Z,961.77
2023-01-18T08:48:24.348Z,961.85
2023-01-18T08:49:24.358Z,961.86
2023-01-18T08:50:24.339Z,961.86
2023-01-18T08:51:24.319Z,961.92
2023-01-18T08:52:24.330Z,961.98
2023-01-18T08:53:24.295Z,961.97
2023-01-18T08:54:24.311Z,961.97
2023-01-18T08:55:24.283Z,962.01
2023-01-18T08:56:24.268Z,962.00
2023-01-18T08:57:24.276Z,962.02
2023-01-18T08:58:24.253Z,962.02
2023-01-18T08:59:24.294Z,962.09
2023-01-18T09:00:26.096Z,962.02
2023-01-18T09:01:24.350Z,962.11
2023-01-18T09:02:24.271Z,962.12
2023-01-18T09:03:24.190Z,962.07
2023-01-18T09:04:24.181Z,962.15
2023-01-18T09:05:24.169Z,962.14
2023-01-18T09:06:24.169Z,962.15
2023-01-18T09:07:24.161Z,962.21
2023-01-18T09:08:24.153Z,962.18
2023-01-18T09:09:24.130Z,962.21
2023-01-18T09:10:24.120Z,962.24
2023-01-18T09:11:24.155Z,962.29
2023-01-18T09:12:24.121Z,962.38
2023-01-18T09:13:24.122Z,962.28
2023-01-18T09:14:24.099Z,962.32
2023-01-18T09:15:24.074Z,962.35
2023-01-18T09:16:24.085Z,962.35
2023-01-18T09:17:24.048Z,962.37
2023-01-18T09:18:24.060Z,962.41
2023-01-18T09:19:24.030Z,962.37
2023-01-18T09:20:24.023Z,962.42
2023-01-18T09:21:24.034Z,962.43
2023-01-18T09:22:24.000Z,962.55
2023-01-18T09:23:23.991Z,962.47
2023-01-18T09:24:23.990Z,962.50
2023-01-18T09:25:23.961Z,962.49
2023-01-18T09:26:23.971Z,962.47
2023-01-18T09:27:23.940Z,962.51
2023-01-18T09:28:23.959Z,962.62
2023-01-18T09:29:23.919Z,962.62
2023-01-18T09:30:23.921Z,962.62
2023-01-18T09:31:23.961Z,962.73
2023-01-18T09:32:23.900Z,962.75
2023-01-18T09:33:27.395Z,962.71
2023-01-18T09:34:24.879Z,962.82
2023-01-18T09:35:23.880Z,962.87
2023-01-18T09:36:23.915Z,962.90
2023-01-18T09:37:23.841Z,962.85
2023-01-18T09:38:23.852Z,962.86
2023-01-18T09:39:23.818Z,962.88
2023-01-18T09:40:23.822Z,962.94
2023-01-18T09:41:23.799Z,962.98
2023-01-18T09:42:23.799Z,963.03
2023-01-18T09:43:23.788Z,962.97
2023-01-18T09:44:23.773Z,963.03
2023-01-18T09:45:24.061Z,963.06
2023-01-18T09:46:23.768Z,963.15
2023-01-18T09:47:23.768Z,963.13
2023-01-18T09:48:23.750Z,963.11
2023-01-18T09:49:23.711Z,963.23
2023-01-18T09:50:23.842Z,963.15
2023-01-18T09:51:23.691Z,963.15
2023-01-18T09:52:23.691Z,963.15
2023-01-18T09:53:23.692Z,963.19
2023-01-18T09:54:23.671Z,963.18
2023-01-18T09:55:23.670Z,963.18
2023-01-18T09:56:23.641Z,963.20
2023-01-18T09:57:23.634Z,963.21
2023-01-18T09:58:23.642Z,963.27
2023-01-18T09:59:23.619Z,963.17
2023-01-18T10:00:23.605Z,963.35
2023-01-18T10:01:23.772Z,963.21
2023-01-18T10:02:23.741Z,963.21
2023-01-18T10:03:23.599Z,963.23
2023-01-18T10:04:23.563Z,963.21
2023-01-18T10:05:23.562Z,963.26
2023-01-18T10:06:23.566Z,963.27
2023-01-18T10:07:23.522Z,963.36
2023-01-18T10:08:23.542Z,963.27
2023-01-18T10:09:23.514Z,963.35
2023-01-18T10:10:23.643Z,963.39
2023-01-18T10:11:23.493Z,963.35
2023-01-18T10:12:23.483Z,963.35
2023-01-18T10:13:23.462Z,963.40
2023-01-18T10:14:23.466Z,963.40
2023-01-18T10:15:23.465Z,963.45
2023-01-18T10:16:23.496Z,963.49
2023-01-18T10:17:23.422Z,963.43
2023-01-18T10:18:23.425Z,963.38
2023-01-18T10:19:23.403Z,963.50
2023-01-18T10:20:23.462Z,963.44
2023-01-18T10:21:23.382Z,963.51
2023-01-18T10:22:23.388Z,963.47
2023-01-18T10:23:23.380Z,963.48
2023-01-18T10:24:23.387Z,963.53
2023-01-18T10:25:23.346Z,963.53
2023-01-18T10:26:23.352Z,963.55
2023-01-18T10:27:23.323Z,963.47
2023-01-18T10:28:23.320Z,963.48
2023-01-18T10:29:23.303Z,963.38
2023-01-18T10:30:23.383Z,963.49
2023-01-18T10:31:23.364Z,963.49
2023-01-18T10:32:23.280Z,963.52
2023-01-18T10:33:23.271Z,963.52
2023-01-18T10:34:23.262Z,963.53
2023-01-18T10:35:23.245Z,963.56
2023-01-18T10:36:23.232Z,963.52
2023-01-18T10:37:23.214Z,963.54
2023-01-18T10:38:23.246Z,963.59
2023-01-18T10:39:23.194Z,963.69
2023-01-18T10:40:23.221Z,963.59
2023-01-18T10:41:23.204Z,963.60
2023-01-18T10:42:23.183Z,963.61
2023-01-18T10:43:23.156Z,963.63
2023-01-18T10:44:23.152Z,963.63
2023-01-18T10:45:23.261Z,963.64
2023-01-18T10:46:23.161Z,963.72
2023-01-18T10:47:23.123Z,963.67
2023-01-18T10:48:23.124Z,963.73
2023-01-18T10:49:23.094Z,963.75
2023-01-18T10:50:23.104Z,963.81
2023-01-18T10:51:23.074Z,963.72
2023-01-18T10:52:23.077Z,963.78
2023-01-18T10:53:23.056Z,963.87
2023-01-18T10:54:23.057Z,963.81
2023-01-18T10:55:23.034Z,963.81
2023-01-18T10:56:23.054Z,963.79
2023-01-18T10:57:23.025Z,963.89
2023-01-18T10:58:23.004Z,963.89
2023-01-18T10:59:22.993Z,963.97
2023-01-18T11:00:23.047Z,964.03
2023-01-18T11:01:23.054Z,963.99
2023-01-18T11:02:22.987Z,963.96
2023-01-18T11:03:22.964Z,963.94
2023-01-18T11:04:22.976Z,964.00
2023-01-18T11:05:22.940Z,963.97
2023-01-18T11:06:22.923Z,964.01
2023-01-18T11:07:22.925Z,964.01
2023-01-18T11:08:22.896Z,963.94
2023-01-18T11:09:22.901Z,964.04
2023-01-18T11:10:22.895Z,964.05
2023-01-18T11:11:22.874Z,964.06
2023-01-18T11:12:22.854Z,964.02
2023-01-18T11:13:22.846Z,964.13
2023-01-18T11:14:22.835Z,964.13
2023-01-18T11:15:22.835Z,964.06
2023-01-18T11:16:22.884Z,964.12
2023-01-18T11:17:22.813Z,964.11
2023-01-18T11:18:22.796Z,964.13
2023-01-18T11:19:22.838Z,964.20
2023-01-18T11:20:22.774Z,964.15
2023-01-18T11:21:22.806Z,964.14
2023-01-18T11:22:22.759Z,964.18
2023-01-18T11:23:22.760Z,964.13
2023-01-18T11:24:22.746Z,964.13
2023-01-18T11:25:22.747Z,964.25
2023-01-18T11:26:22.731Z,964.18
2023-01-18T11:27:22.715Z,964.16
2023-01-18T11:28:22.707Z,964.25
2023-01-18T11:29:22.686Z,964.22
2023-01-18T11:30:22.665Z,964.21
2023-01-18T11:31:22.762Z,964.22
2023-01-18T11:32:22.673Z,964.27
2023-01-18T11:33:22.659Z,964.28
2023-01-18T11:34:22.656Z,964.30
2023-01-18T11:35:23.581Z,964.27
2023-01-18T11:36:22.623Z,964.30
2023-01-18T11:37:22.595Z,964.31
2023-01-18T11:38:22.607Z,964.34
2023-01-18T11:39:22.586Z,964.33
2023-01-18T11:40:22.572Z,964.29
2023-01-18T11:41:22.556Z,964.36
2023-01-18T11:42:22.592Z,964.37
2023-01-18T11:43:22.569Z,964.36
2023-01-18T11:44:22.527Z,964.38
2023-01-18T11:45:22.738Z,964.39
2023-01-18T11:46:22.525Z,964.42
2023-01-18T11:47:22.497Z,964.40
2023-01-18T11:48:22.496Z,964.49
2023-01-18T11:49:22.480Z,964.42
2023-01-18T11:50:22.799Z,964.48
2023-01-18T11:51:22.469Z,964.41
2023-01-18T11:52:22.447Z,964.50
2023-01-18T11:53:22.448Z,964.45
2023-01-18T11:54:22.425Z,964.45
2023-01-18T11:55:22.418Z,964.44
2023-01-18T11:56:22.403Z,964.47
2023-01-18T11:57:22.401Z,964.42
2023-01-18T11:58:22.378Z,964.45
2023-01-18T11:59:22.370Z,964.42
2023-01-18T12:00:22.359Z,964.45
2023-01-18T12:01:22.375Z,964.47
2023-01-18T12:02:22.403Z,964.52
2023-01-18T12:03:22.366Z,964.54
2023-01-18T12:04:22.348Z,964.49
2023-01-18T12:05:22.307Z,964.57
2023-01-18T12:06:22.295Z,964.52
2023-01-18T12:07:22.287Z,964.58
2023-01-18T12:08:22.285Z,964.54
2023-01-18T12:09:22.266Z,964.58
2023-01-18T12:10:22.258Z,964.61
2023-01-18T12:11:22.247Z,964.66
2023-01-18T12:12:22.253Z,964.72
2023-01-18T12:13:22.218Z,964.68
2023-01-18T12:14:22.217Z,964.67
2023-01-18T12:15:22.201Z,964.76
2023-01-18T12:16:22.204Z,964.76
2023-01-18T12:17:22.185Z,964.73
2023-01-18T12:18:22.180Z,964.79
2023-01-18T12:19:22.177Z,964.81
2023-01-18T12:20:22.167Z,964.83
2023-01-18T12:21:22.145Z,964.83
2023-01-18T12:22:22.128Z,964.80
2023-01-18T12:23:22.143Z,964.82
2023-01-18T12:24:22.128Z,964.92
2023-01-18T12:25:22.116Z,965.00
2023-01-18T12:26:22.118Z,964.95
2023-01-18T12:27:22.082Z,964.95
2023-01-18T12:28:22.068Z,965.03